Time;durP1;ratioP1;P1;durP2;ratioP2;P2;SDS_P1;SDS_P2;PMS_P1;PMS_P2;Temp;Humidity;BMP_temperature;BMP_pressure;BME280_temperature;BME280_humidity;BME280_pressure;Samples;Min_cycle;Max_cycle;Signal;HPM_P1;HPM_P2
2022/06/12 00:00:43;;;;;;;12.50;4.30;;;13.40;99.90;;;;;;5021892;28;20250;-96
2022/06/12 00:03:11;;;;;;;12.55;4.45;;;13.40;99.90;;;;;;5038525;28;20049;-96
2022/06/12 00:05:42;;;;;;;11.07;3.58;;;13.40;99.90;;;;;;5037519;28;20127;-95
2022/06/12 00:08:08;;;;;;;9.90;4.15;;;13.40;99.90;;;;;;5037368;28;20045;-94
2022/06/12 00:10:38;;;;;;;11.88;4.03;;;13.30;99.90;;;;;;5038599;28;20069;-96
2022/06/12 00:13:05;;;;;;;7.97;3.60;;;13.30;99.90;;;;;;5038530;28;20049;-95
2022/06/12 00:15:31;;;;;;;16.17;4.40;;;13.30;99.90;;;;;;5021128;28;20049;-96
2022/06/12 00:17:58;;;;;;;13.20;4.47;;;13.20;99.90;;;;;;5041297;28;20120;-95
2022/06/12 00:20:25;;;;;;;8.67;3.80;;;13.30;99.90;;;;;;5066073;28;20036;-96
2022/06/12 00:22:52;;;;;;;8.73;3.50;;;13.20;99.90;;;;;;5066659;28;20047;-96
2022/06/12 00:25:20;;;;;;;9.38;3.33;;;13.20;99.90;;;;;;5066260;28;20044;-96
2022/06/12 00:27:47;;;;;;;12.23;3.88;;;13.20;99.90;;;;;;5065891;28;20126;-94
2022/06/12 00:30:16;;;;;;;7.28;2.70;;;13.20;99.90;;;;;;5065523;28;20051;-96
2022/06/12 00:32:44;;;;;;;14.02;3.83;;;13.10;99.90;;;;;;5065590;28;20036;-96
2022/06/12 00:35:10;;;;;;;10.63;4.00;;;13.20;99.90;;;;;;5064357;28;20047;-96
2022/06/12 00:37:37;;;;;;;8.70;3.20;;;13.20;99.90;;;;;;5064555;28;20041;-96
2022/06/12 00:40:05;;;;;;;8.45;3.75;;;13.10;99.90;;;;;;5083127;28;20039;-95
2022/06/12 00:42:38;;;;;;;13.77;4.60;;;13.10;99.90;;;;;;5066391;28;20044;-95
2022/06/12 00:45:32;;;;;;;11.25;4.22;;;13.10;99.90;;;;;;5066519;28;20119;-95
2022/06/12 00:48:01;;;;;;;9.25;4.55;;;13.10;99.90;;;;;;5082055;28;20051;-95
2022/06/12 00:50:28;;;;;;;11.68;4.80;;;13.00;99.90;;;;;;5063828;28;20044;-95
2022/06/12 00:52:55;;;;;;;10.70;4.40;;;13.10;99.90;;;;;;5062833;28;20504;-96
2022/06/12 00:55:34;;;;;;;11.45;4.20;;;12.90;99.90;;;;;;5079483;28;20040;-96
2022/06/12 00:58:06;;;;;;;14.90;4.70;;;12.90;99.90;;;;;;5078694;28;20040;-95
2022/06/12 01:00:33;;;;;;;10.40;4.55;;;13.20;99.90;;;;;;5062070;28;20040;-96
2022/06/12 01:02:59;;;;;;;10.67;4.50;;;12.90;99.90;;;;;;5079069;28;20079;-96
2022/06/12 01:08:10;;;;;;;15.70;5.40;;;12.80;99.90;;;;;;5079061;28;20048;-95
2022/06/12 01:10:39;;;;;;;12.35;5.05;;;12.80;99.90;;;;;;5063503;28;20040;-96
2022/06/12 01:13:12;;;;;;;13.10;4.43;;;13.00;99.90;;;;;;5061529;28;20523;-96
2022/06/12 01:15:42;;;;;;;7.93;4.35;;;13.00;99.90;;;;;;5077939;28;20039;-96
2022/06/12 01:18:12;;;;;;;11.65;4.70;;;13.20;99.90;;;;;;5079266;28;20040;-96
2022/06/12 01:20:48;;;;;;;9.85;5.00;;;13.10;99.90;;;;;;5069115;28;20123;-96
2022/06/12 01:23:56;;;;;;;11.52;4.28;;;12.50;99.90;;;;;;5066239;28;20048;-96
2022/06/12 01:26:25;;;;;;;11.35;3.85;;;;;;;;;;5066260;28;20126;-96
2022/06/12 01:29:06;;;;;;;11.02;3.90;;;12.50;99.90;;;;;;5066656;28;20043;-96
2022/06/12 01:31:42;;;;;;;7.60;3.70;;;12.80;99.90;;;;;;5076411;28;20044;-96
2022/06/12 01:34:28;;;;;;;12.68;4.32;;;13.00;99.90;;;;;;5082438;28;20032;-96
2022/06/12 01:37:02;;;;;;;10.07;4.32;;;12.70;99.90;;;;;;5089754;28;20020;-95
2022/06/12 01:39:37;;;;;;;8.90;4.00;;;12.70;99.90;;;;;;5087870;28;20028;-96
2022/06/12 01:42:56;;;;;;;10.45;3.70;;;13.40;99.90;;;;;;5084813;28;20044;-96
2022/06/12 01:45:27;;;;;;;10.48;3.60;;;12.80;99.90;;;;;;5014829;28;20179;-96
2022/06/12 01:48:06;;;;;;;8.55;3.30;;;;;;;;;;5006547;28;20058;-96
2022/06/12 01:50:43;;;;;;;10.15;3.83;;;12.50;99.90;;;;;;5002065;28;20054;-95
2022/06/12 01:53:28;;;;;;;7.75;2.95;;;12.40;99.90;;;;;;4989036;28;20041;-96
2022/06/12 01:56:02;;;;;;;10.35;3.35;;;12.40;99.90;;;;;;4992264;28;20045;-96
2022/06/12 01:58:33;;;;;;;8.68;3.22;;;12.40;99.90;;;;;;5011096;28;20042;-95
2022/06/12 02:01:28;;;;;;;11.00;3.22;;;12.40;99.90;;;;;;5013567;28;20061;-96
2022/06/12 02:04:00;;;;;;;7.65;3.00;;;12.40;99.90;;;;;;5014349;28;20453;-95
2022/06/12 02:06:37;;;;;;;7.38;3.03;;;12.40;99.90;;;;;;5002756;28;20042;-96
2022/06/12 02:09:11;;;;;;;10.25;2.80;;;12.40;99.90;;;;;;4984672;28;20189;-94
2022/06/12 02:14:38;;;;;;;10.32;2.95;;;12.40;99.90;;;;;;5018043;28;20060;-95
2022/06/12 02:17:11;;;;;;;7.35;2.58;;;12.30;99.90;;;;;;5000967;28;20128;-96
2022/06/12 02:19:43;;;;;;;6.38;2.70;;;12.30;99.90;;;;;;5052653;28;20052;-93
2022/06/12 02:22:08;;;;;;;10.25;3.40;;;12.40;99.90;;;;;;5101788;28;20040;-96
2022/06/12 02:24:42;;;;;;;6.43;2.55;;;12.40;99.90;;;;;;5086630;28;20502;-95
2022/06/12 02:27:20;;;;;;;6.68;2.30;;;12.30;99.90;;;;;;5073925;28;20032;-95
2022/06/12 02:29:46;;;;;;;7.78;2.90;;;12.30;99.90;;;;;;5083006;28;20019;-94
2022/06/12 02:32:27;;;;;;;8.48;2.80;;;12.30;99.90;;;;;;5100436;28;20020;-95
2022/06/12 02:35:00;;;;;;;9.25;2.92;;;12.30;99.90;;;;;;5079370;28;20060;-94
2022/06/12 02:37:36;;;;;;;5.72;2.63;;;12.40;99.90;;;;;;5084458;28;20434;-95
2022/06/12 02:40:08;;;;;;;8.95;2.95;;;12.30;99.90;;;;;;5084467;28;20100;-94
2022/06/12 02:42:40;;;;;;;7.88;2.70;;;12.40;99.90;;;;;;5083524;28;20126;-93
2022/06/12 02:45:11;;;;;;;8.13;2.50;;;12.40;99.90;;;;;;5065644;28;20040;-94
2022/06/12 02:47:40;;;;;;;9.10;2.83;;;12.40;99.90;;;;;;5065839;28;20082;-95
2022/06/12 02:50:08;;;;;;;7.25;2.78;;;12.40;99.90;;;;;;5065684;28;20040;-94
2022/06/12 02:53:02;;;;;;;6.35;2.53;;;12.40;99.90;;;;;;5082645;28;20052;-96
2022/06/12 02:56:00;;;;;;;10.10;3.10;;;12.40;99.90;;;;;;5081907;28;20055;-95
2022/06/12 02:58:32;;;;;;;7.35;2.67;;;12.40;99.90;;;;;;5066376;28;20071;-95
2022/06/12 03:01:05;;;;;;;10.82;3.40;;;12.40;99.90;;;;;;5067080;28;20474;-96
2022/06/12 03:03:42;;;;;;;6.65;2.55;;;12.40;99.90;;;;;;5067034;28;20136;-95
2022/06/12 03:06:08;;;;;;;7.07;2.70;;;12.40;99.90;;;;;;5067225;28;20506;-96
2022/06/12 03:08:43;;;;;;;7.10;2.70;;;12.40;99.90;;;;;;5066477;28;20043;-94
2022/06/12 03:11:15;;;;;;;8.10;3.00;;;12.40;99.90;;;;;;5083440;28;20104;-96
2022/06/12 03:13:41;;;;;;;6.72;2.80;;;;;;;;;;5082043;28;20086;-95
2022/06/12 03:16:18;;;;;;;5.55;2.60;;;12.40;99.90;;;;;;5100494;28;20071;-95
2022/06/12 03:18:54;;;;;;;6.88;2.70;;;12.50;99.90;;;;;;5066294;28;20036;-95
2022/06/12 03:21:48;;;;;;;9.95;3.13;;;12.50;99.90;;;;;;5082628;28;20040;-96
2022/06/12 03:24:40;;;;;;;7.75;2.70;;;12.50;99.90;;;;;;5081963;28;20055;-95
2022/06/12 03:27:25;;;;;;;7.50;3.42;;;12.50;99.90;;;;;;5065163;28;20036;-94
2022/06/12 03:30:03;;;;;;;9.20;2.85;;;12.60;99.90;;;;;;5082270;28;20079;-96
2022/06/12 03:32:33;;;;;;;8.48;3.28;;;12.60;99.90;;;;;;5065311;28;20477;-95
2022/06/12 03:35:10;;;;;;;6.45;2.80;;;12.60;99.90;;;;;;5065012;28;20082;-94
2022/06/12 03:37:45;;;;;;;6.25;2.97;;;12.70;99.90;;;;;;5082264;28;20040;-96
2022/06/12 03:40:19;;;;;;;9.95;3.08;;;12.70;99.90;;;;;;5065383;28;20047;-94
2022/06/12 03:42:57;;;;;;;7.80;2.90;;;12.70;99.90;;;;;;5066336;28;20040;-96
2022/06/12 03:45:33;;;;;;;7.65;2.70;;;12.70;99.90;;;;;;5066411;28;20051;-94
2022/06/12 03:48:21;;;;;;;11.00;3.33;;;12.80;99.90;;;;;;5083124;28;20838;-95
2022/06/12 03:51:03;;;;;;;7.70;2.88;;;12.80;99.90;;;;;;5065329;28;20059;-95
2022/06/12 03:53:44;;;;;;;8.30;2.80;;;12.80;99.90;;;;;;5081397;28;20067;-95
2022/06/12 03:59:28;;;;;;;10.55;2.90;;;13.00;99.90;;;;;;5100236;28;20052;-95
2022/06/12 04:01:55;;;;;;;8.82;3.00;;;13.00;99.90;;;;;;5060525;28;20500;-95
2022/06/12 04:04:24;;;;;;;7.65;2.80;;;13.10;99.90;;;;;;5065944;28;20055;-95
2022/06/12 04:06:54;;;;;;;6.78;2.47;;;13.10;99.90;;;;;;5083679;28;20036;-95
2022/06/12 04:09:26;;;;;;;8.27;2.78;;;13.10;99.90;;;;;;5083566;28;20036;-95
2022/06/12 04:12:04;;;;;;;8.73;2.83;;;13.20;99.90;;;;;;5066021;28;20039;-95
2022/06/12 04:14:38;;;;;;;8.75;3.00;;;13.30;99.90;;;;;;5066127;28;20044;-94
2022/06/12 04:17:05;;;;;;;7.97;2.72;;;;;;;;;;5095308;28;20040;-96
2022/06/12 04:19:58;;;;;;;8.07;2.63;;;13.40;99.90;;;;;;5094263;28;20040;-95
2022/06/12 04:22:20;;;;;;;6.78;2.65;;;13.50;99.90;;;;;;5089912;28;20106;-94
2022/06/12 04:24:58;;;;;;;7.55;2.50;;;13.60;99.90;;;;;;5082594;28;20097;-95
2022/06/12 04:27:24;;;;;;;;;;;13.70;99.90;;;;;;5064648;28;20083;-95
2022/06/12 04:29:58;;;;;;;9.40;3.05;;;13.80;99.90;;;;;;5065411;28;19963;-95
2022/06/12 04:32:25;;;;;;;5.97;2.80;;;13.90;99.90;;;;;;5083027;28;20049;-95
2022/06/12 04:34:53;;;;;;;9.60;2.97;;;14.50;99.90;;;;;;5066653;28;20084;-95
2022/06/12 04:37:25;;;;;;;7.20;2.78;;;15.20;99.90;;;;;;5070195;28;20043;-94
2022/06/12 04:39:53;;;;;;;8.20;3.10;;;16.00;99.90;;;;;;5077553;28;20139;-94
2022/06/12 04:42:24;;;;;;;8.23;2.60;;;16.90;99.90;;;;;;5076102;28;20028;-94
2022/06/12 04:44:50;;;;;;;6.47;2.45;;;17.80;99.90;;;;;;5073716;28;20036;-96
2022/06/12 04:47:20;;;;;;;6.75;2.63;;;18.60;99.90;;;;;;5065458;28;20090;-95
2022/06/12 04:49:46;;;;;;;10.30;3.45;;;19.30;99.90;;;;;;5081731;28;20044;-95
2022/06/12 04:52:16;;;;;;;9.40;2.50;;;19.90;99.90;;;;;;5065240;28;20048;-95
2022/06/12 04:54:43;;;;;;;6.53;2.47;;;20.40;99.90;;;;;;5069575;28;20040;-93
2022/06/12 04:57:09;;;;;;;;;;;20.90;99.90;;;;;;5086331;28;20031;-95
2022/06/12 04:59:35;;;;;;;6.30;2.42;;;21.50;99.90;;;;;;5086768;28;19920;-93
2022/06/12 05:02:01;;;;;;;8.55;2.55;;;21.90;99.90;;;;;;5070261;28;20059;-95
2022/06/12 05:04:30;;;;;;;6.18;2.25;;;22.50;99.90;;;;;;5090811;28;20036;-94
2022/06/12 05:06:56;;;;;;;6.18;2.45;;;22.70;99.90;;;;;;5072075;28;20072;-95
2022/06/12 05:09:25;;;;;;;7.83;2.80;;;23.00;99.90;;;;;;5075821;28;20039;-95
2022/06/12 05:11:51;;;;;;;6.28;2.40;;;23.20;99.90;;;;;;5066869;28;20105;-94
2022/06/12 05:14:17;;;;;;;7.77;2.70;;;23.60;99.90;;;;;;5068464;28;20131;-94
2022/06/12 05:16:47;;;;;;;8.18;2.85;;;23.90;99.00;;;;;;5069150;28;20294;-94
2022/06/12 05:19:16;;;;;;;13.15;3.33;;;24.30;99.40;;;;;;5069821;28;20093;-94
2022/06/12 05:21:42;;;;;;;8.57;2.58;;;24.50;97.80;;;;;;5087091;28;20453;-92
2022/06/12 05:24:09;;;;;;;9.48;2.63;;;24.70;95.30;;;;;;5068586;28;20047;-94
2022/06/12 05:26:35;;;;;;;7.87;2.40;;;25.00;96.10;;;;;;5069453;28;20100;-95
2022/06/12 05:29:04;;;;;;;9.05;2.30;;;25.10;94.50;;;;;;5068831;28;20047;-94
2022/06/12 05:31:30;;;;;;;10.15;2.63;;;25.30;94.30;;;;;;5067598;28;20375;-95
2022/06/12 05:33:56;;;;;;;10.10;2.90;;;25.50;93.90;;;;;;5067963;28;20047;-93
2022/06/12 05:36:22;;;;;;;9.68;2.30;;;25.60;94.40;;;;;;5068744;28;20024;-96
2022/06/12 05:38:48;;;;;;;10.93;2.90;;;25.80;91.40;;;;;;5069060;28;20044;-94
2022/06/12 05:41:14;;;;;;;8.70;2.50;;;26.00;88.60;;;;;;5069171;28;20100;-95
2022/06/12 05:43:41;;;;;;;10.90;2.42;;;26.20;90.40;;;;;;5087055;28;20051;-94
2022/06/12 05:46:09;;;;;;;8.63;2.80;;;26.30;90.70;;;;;;5071631;28;20079;-93
2022/06/12 05:48:35;;;;;;;10.35;2.75;;;26.60;88.50;;;;;;5077831;28;20040;-96
2022/06/12 05:51:01;;;;;;;10.48;3.42;;;26.60;88.60;;;;;;5073123;28;20125;-96
2022/06/12 05:53:29;;;;;;;8.10;2.45;;;26.70;83.70;;;;;;5075759;28;20134;-94
2022/06/12 05:55:56;;;;;;;9.30;3.00;;;27.00;84.50;;;;;;5080118;28;20032;-95
2022/06/12 05:58:24;;;;;;;11.93;3.08;;;26.90;81.70;;;;;;5083498;28;20028;-93
2022/06/12 06:00:52;;;;;;;10.07;3.10;;;27.00;83.20;;;;;;5101085;28;20032;-94
2022/06/12 06:03:18;;;;;;;11.50;3.28;;;27.20;81.80;;;;;;5100576;28;20028;-93
2022/06/12 06:05:46;;;;;;;11.70;3.17;;;27.50;80.50;;;;;;5083062;28;20055;-95
2022/06/12 06:08:12;;;;;;;12.98;3.85;;;27.30;79.40;;;;;;5083539;28;20039;-95
2022/06/12 06:10:39;;;;;;;8.23;3.00;;;27.50;79.50;;;;;;5074609;28;20051;-94
2022/06/12 06:13:08;;;;;;;10.40;3.20;;;27.50;77.60;;;;;;5084648;28;20044;-93
2022/06/12 06:15:33;;;;;;;8.52;2.80;;;27.70;77.40;;;;;;5067545;28;20697;-95
2022/06/12 06:18:00;;;;;;;9.20;3.15;;;27.70;77.50;;;;;;5084094;28;20040;-95
2022/06/12 06:20:33;;;;;;;12.95;3.60;;;27.80;80.60;;;;;;5083200;28;20083;-94
2022/06/12 06:22:59;;;;;;;11.05;3.22;;;28.00;79.00;;;;;;5083367;28;20044;-94
2022/06/12 06:25:27;;;;;;;14.77;3.40;;;28.30;74.80;;;;;;5066908;28;20050;-93
2022/06/12 06:27:59;;;;;;;9.88;3.08;;;28.10;74.70;;;;;;5085170;28;20046;-94
2022/06/12 06:30:38;;;;;;;10.00;2.92;;;28.20;75.50;;;;;;5070909;28;20102;-93
2022/06/12 06:33:04;;;;;;;13.13;3.40;;;28.30;75.60;;;;;;5084847;28;20055;-94
2022/06/12 06:35:30;;;;;;;9.82;3.08;;;28.20;74.00;;;;;;5075440;28;20484;-95
2022/06/12 06:37:56;;;;;;;12.45;3.63;;;28.30;74.90;;;;;;5093193;28;20040;-94
2022/06/12 06:40:25;;;;;;;14.82;3.85;;;28.30;74.20;;;;;;5077317;28;20043;-93
2022/06/12 06:42:51;;;;;;;11.40;3.72;;;28.30;72.10;;;;;;5111612;28;20036;-94
2022/06/12 06:48:04;;;;;;;11.32;3.03;;;28.50;75.00;;;;;;5083276;28;20043;-94
2022/06/12 06:50:31;;;;;;;12.73;3.33;;;28.60;75.10;;;;;;5083170;28;20212;-93
2022/06/12 06:52:59;;;;;;;11.52;3.47;;;28.60;74.70;;;;;;5068271;28;20056;-91
2022/06/12 06:55:25;;;;;;;;;;;28.70;73.00;;;;;;5086144;28;20032;-94
2022/06/12 06:57:50;;;;;;;15.32;3.90;;;28.80;74.30;;;;;;5072530;28;19920;-93
2022/06/12 07:00:23;;;;;;;11.68;3.65;;;28.40;73.00;;;;;;5083678;28;20048;-96
2022/06/12 07:02:50;;;;;;;13.82;4.07;;;28.50;74.00;;;;;;5099597;28;20060;-92
2022/06/12 07:05:17;;;;;;;18.30;4.72;;;28.20;73.30;;;;;;5079420;28;20067;-95
2022/06/12 07:07:43;;;;;;;13.48;4.15;;;28.00;75.60;;;;;;5083513;28;20097;-93
2022/06/12 07:10:21;;;;;;;16.33;4.07;;;27.80;74.90;;;;;;5067418;28;20044;-95
2022/06/12 07:12:49;;;;;;;11.73;3.80;;;27.70;75.80;;;;;;5066532;28;20051;-94
2022/06/12 07:15:15;;;;;;;12.52;3.58;;;27.50;77.00;;;;;;5082676;28;20043;-94
2022/06/12 07:17:42;;;;;;;12.20;4.00;;;27.70;77.00;;;;;;5066584;28;20168;-96
2022/06/12 07:20:10;;;;;;;11.87;4.50;;;27.60;77.00;;;;;;5083147;28;20047;-94
2022/06/12 07:22:36;;;;;;;11.60;4.00;;;27.50;77.30;;;;;;5065560;28;20286;-93
2022/06/12 07:25:03;;;;;;;16.83;4.07;;;27.50;76.80;;;;;;5083895;28;20036;-92
2022/06/12 07:27:28;;;;;;;14.63;3.90;;;27.30;78.20;;;;;;5067830;28;20510;-94
2022/06/12 07:29:54;;;;;;;14.68;4.28;;;27.20;77.70;;;;;;5067768;28;20032;-94
2022/06/12 07:32:20;;;;;;;11.70;3.75;;;27.40;78.90;;;;;;5068152;28;20039;-94
2022/06/12 07:34:46;;;;;;;15.43;4.53;;;27.10;78.70;;;;;;5084715;28;20079;-94
2022/06/12 07:37:12;;;;;;;12.13;3.92;;;26.90;80.20;;;;;;5071500;28;20047;-94
2022/06/12 07:39:39;;;;;;;12.73;3.88;;;26.70;78.40;;;;;;5070950;28;20044;-95
2022/06/12 07:42:05;;;;;;;12.50;4.68;;;26.50;80.30;;;;;;5070787;28;20044;-95
2022/06/12 07:44:34;;;;;;;12.23;4.00;;;26.50;83.20;;;;;;5089002;28;20108;-93
2022/06/12 07:47:00;;;;;;;13.80;4.18;;;26.20;83.40;;;;;;5073153;28;20483;-95
2022/06/12 07:49:29;;;;;;;16.15;5.10;;;25.90;83.50;;;;;;5073259;28;20052;-94
2022/06/12 07:51:59;;;;;;;11.07;3.90;;;25.60;85.70;;;;;;5070503;28;20133;-96
2022/06/12 07:54:25;;;;;;;12.43;3.92;;;25.50;90.50;;;;;;5085168;28;20076;-94
2022/06/12 07:57:06;;;;;;;14.48;4.07;;;24.80;89.80;;;;;;5070665;28;20036;-94
2022/06/12 07:59:33;;;;;;;12.13;4.30;;;24.60;91.00;;;;;;5090328;28;20028;-94
2022/06/12 08:02:08;;;;;;;14.98;4.50;;;24.40;91.80;;;;;;5089083;28;20376;-95
2022/06/12 08:04:35;;;;;;;14.88;3.63;;;24.10;93.50;;;;;;5089167;28;20055;-94
2022/06/12 08:07:01;;;;;;;14.48;4.35;;;24.00;94.50;;;;;;5072380;28;20028;-96
2022/06/12 08:09:27;;;;;;;10.88;3.63;;;23.90;94.20;;;;;;5069581;28;20036;-95
2022/06/12 08:11:53;;;;;;;18.07;4.30;;;23.70;95.20;;;;;;5088219;28;20125;-94
2022/06/12 08:14:20;;;;;;;13.38;4.45;;;23.90;95.60;;;;;;5088897;28;20040;-96
2022/06/12 08:16:50;;;;;;;15.98;4.63;;;23.70;96.70;;;;;;5105142;28;20040;-92
2022/06/12 08:22:06;;;;;;;10.57;3.45;;;23.80;99.10;;;;;;5086783;28;20040;-95
2022/06/12 08:24:33;;;;;;;14.38;3.90;;;23.70;98.50;;;;;;5071223;28;20043;-94
2022/06/12 08:26:59;;;;;;;13.45;4.03;;;23.70;99.60;;;;;;5070246;28;20040;-95
2022/06/12 08:29:25;;;;;;;12.43;3.30;;;23.80;99.10;;;;;;5070729;28;20150;-95
2022/06/12 08:31:57;;;;;;;13.98;4.30;;;23.80;98.70;;;;;;5087335;28;20044;-93
2022/06/12 08:34:48;;;;;;;13.18;4.13;;;24.00;99.40;;;;;;5083957;28;20193;-94
2022/06/12 08:37:27;;;;;;;13.75;3.63;;;24.20;99.90;;;;;;5084038;28;20054;-96
2022/06/12 08:39:53;;;;;;;11.57;4.15;;;24.00;99.00;;;;;;5082130;28;20485;-95
2022/06/12 08:42:24;;;;;;;11.32;3.40;;;24.00;98.90;;;;;;5100845;28;20109;-94
2022/06/12 08:45:07;;;;;;;11.55;3.38;;;23.90;99.60;;;;;;5082792;28;20511;-96
2022/06/12 08:47:32;;;;;;;13.63;3.33;;;23.80;98.90;;;;;;5096168;28;20040;-95
2022/06/12 08:50:23;;;;;;;11.75;3.42;;;23.60;99.40;;;;;;5097207;28;20109;-95
2022/06/12 08:52:55;;;;;;;11.45;3.38;;;23.70;99.90;;;;;;5097046;28;20084;-96
2022/06/12 08:55:48;;;;;;;10.18;3.05;;;23.70;99.10;;;;;;5067284;28;20044;-96
2022/06/12 08:58:41;;;;;;;10.32;3.40;;;23.80;99.90;;;;;;5065809;28;20044;-95
2022/06/12 09:01:08;;;;;;;11.07;3.50;;;23.70;99.90;;;;;;5100130;28;20044;-96
2022/06/12 09:03:49;;;;;;;12.13;4.22;;;23.70;99.90;;;;;;5065832;28;20069;-96
2022/06/12 09:06:33;;;;;;;12.90;3.53;;;23.70;99.40;;;;;;5067998;28;20036;-94
2022/06/12 09:09:16;;;;;;;12.00;3.35;;;23.60;99.90;;;;;;5075552;28;20040;-94
2022/06/12 09:12:03;;;;;;;9.52;3.15;;;23.70;99.90;;;;;;5098777;28;20040;-96
2022/06/12 09:14:38;;;;;;;10.80;3.50;;;24.00;99.90;;;;;;5075091;28;20071;-95
2022/06/12 09:17:34;;;;;;;12.68;3.55;;;24.20;99.90;;;;;;5086085;28;20051;-96
2022/06/12 09:20:54;;;;;;;10.00;3.10;;;24.20;99.90;;;;;;5066355;28;20075;-94
2022/06/12 09:23:28;;;;;;;12.30;3.95;;;24.10;99.90;;;;;;5006072;28;20292;-94
2022/06/12 09:26:26;;;;;;;10.73;3.58;;;24.10;99.90;;;;;;5006618;28;20053;-95
2022/06/12 09:29:30;;;;;;;10.25;2.97;;;24.30;99.90;;;;;;4996303;28;20053;-95
2022/06/12 09:32:07;;;;;;;11.98;3.50;;;24.30;98.60;;;;;;5002756;28;20063;-95
2022/06/12 09:34:46;;;;;;;10.03;2.93;;;23.70;99.50;;;;;;5019401;28;20045;-96
2022/06/12 09:40:37;;;;;;;7.45;2.78;;;24.20;99.30;;;;;;5041728;28;20043;-96
2022/06/12 09:43:35;;;;;;;6.70;2.38;;;24.50;97.90;;;;;;5006278;28;20049;-96
2022/06/12 09:46:18;;;;;;;8.77;2.25;;;24.60;95.40;;;;;;5024146;28;20534;-95
2022/06/12 09:49:11;;;;;;;6.32;2.40;;;24.80;95.20;;;;;;5008916;28;20045;-95
2022/06/12 09:52:02;;;;;;;6.43;2.05;;;25.00;94.90;;;;;;5037373;28;20613;-94
2022/06/12 09:54:56;;;;;;;5.53;2.40;;;25.00;92.20;;;;;;5023761;28;20050;-95
2022/06/12 09:57:51;;;;;;;4.88;1.90;;;25.20;93.10;;;;;;5038328;28;20055;-95
2022/06/12 10:00:36;;;;;;;6.13;2.13;;;25.30;89.40;;;;;;5066721;28;20238;-94
2022/06/12 10:03:07;;;;;;;6.55;2.10;;;25.10;85.00;;;;;;5065922;28;20051;-94
2022/06/12 10:05:57;;;;;;;7.43;2.17;;;24.90;89.00;;;;;;5083562;28;20507;-94
2022/06/12 10:08:35;;;;;;;7.03;2.20;;;24.70;86.10;;;;;;5066780;28;20496;-96
2022/06/12 10:11:22;;;;;;;6.88;2.22;;;25.00;89.00;;;;;;5066029;28;20051;-94
2022/06/12 10:13:55;;;;;;;4.70;2.10;;;24.60;81.00;;;;;;5082844;28;20393;-94
2022/06/12 10:16:31;;;;;;;8.00;2.22;;;24.50;85.40;;;;;;5084883;28;20035;-95
2022/06/12 10:19:12;;;;;;;7.17;2.20;;;24.30;81.40;;;;;;5084485;28;20092;-95
2022/06/12 10:21:42;;;;;;;5.68;2.10;;;24.20;83.00;;;;;;5084207;28;20148;-96
2022/06/12 10:24:10;;;;;;;5.88;1.83;;;24.30;84.40;;;;;;5083985;28;20040;-96
2022/06/12 10:26:36;;;;;;;5.13;1.98;;;24.50;85.00;;;;;;5084271;28;20154;-95
2022/06/12 10:29:15;;;;;;;5.95;2.30;;;24.80;85.40;;;;;;5084820;28;20040;-92
2022/06/12 10:31:50;;;;;;;8.18;2.20;;;24.80;85.50;;;;;;5067427;28;20043;-95
2022/06/12 10:34:21;;;;;;;6.95;2.45;;;25.20;88.30;;;;;;5067806;28;20044;-94
2022/06/12 10:36:47;;;;;;;5.65;2.20;;;25.40;87.50;;;;;;5087115;28;20043;-93
2022/06/12 10:39:23;;;;;;;5.47;2.33;;;25.30;79.60;;;;;;5090409;28;20095;-94
2022/06/12 10:41:59;;;;;;;5.00;2.22;;;25.40;82.60;;;;;;5089750;28;20024;-94
2022/06/12 10:44:34;;;;;;;9.98;2.60;;;25.10;79.10;;;;;;5069043;28;20064;-93
2022/06/12 10:47:13;;;;;;;7.07;2.72;;;24.50;80.90;;;;;;5069517;28;20040;-95
2022/06/12 10:49:39;;;;;;;6.20;2.03;;;24.30;80.40;;;;;;5086213;28;20055;-94
2022/06/12 10:52:15;;;;;;;4.30;1.85;;;24.20;82.50;;;;;;5070244;28;20056;-95
2022/06/12 10:54:41;;;;;;;9.37;2.60;;;24.50;83.90;;;;;;5069629;28;20067;-95
2022/06/12 10:57:53;;;;;;;6.63;2.42;;;24.60;83.00;;;;;;5067807;28;20798;-94
2022/06/12 11:00:23;;;;;;;6.22;2.35;;;24.30;82.10;;;;;;5069294;28;20060;-95
2022/06/12 11:03:27;;;;;;;8.30;2.17;;;24.50;85.80;;;;;;5069725;28;20032;-94
2022/06/12 11:06:12;;;;;;;8.45;2.53;;;24.90;86.70;;;;;;5075959;28;20099;-96
2022/06/12 11:09:07;;;;;;;5.75;2.10;;;24.80;82.60;;;;;;5099518;28;20075;-93
2022/06/12 11:11:44;;;;;;;5.00;2.03;;;24.90;80.00;;;;;;5083221;28;20039;-95
2022/06/12 11:14:47;;;;;;;7.20;2.00;;;25.10;78.60;;;;;;5077115;28;20435;-96
2022/06/12 11:17:37;;;;;;;6.68;2.10;;;24.90;77.80;;;;;;5066988;28;20090;-95
2022/06/12 11:20:32;;;;;;;8.35;2.33;;;24.90;81.60;;;;;;5085037;28;20040;-96
2022/06/12 11:23:23;;;;;;;5.85;1.98;;;24.50;83.00;;;;;;5066767;28;20075;-96
2022/06/12 11:26:10;;;;;;;8.57;2.30;;;24.60;84.00;;;;;;5085518;28;20051;-95
2022/06/12 11:29:01;;;;;;;9.10;2.50;;;24.70;85.00;;;;;;5078868;28;20040;-96
2022/06/12 11:31:38;;;;;;;4.90;2.03;;;24.60;81.20;;;;;;5079854;28;20047;-96
2022/06/12 11:34:31;;;;;;;4.85;1.83;;;24.60;80.00;;;;;;5077149;28;20039;-94
2022/06/12 11:37:37;;;;;;;5.72;1.80;;;24.60;79.90;;;;;;5082598;28;20047;-96
2022/06/12 11:40:34;;;;;;;4.73;2.00;;;23.90;78.80;;;;;;5067577;28;20051;-95
2022/06/12 11:43:30;;;;;;;5.53;1.92;;;24.10;79.80;;;;;;5081291;28;20075;-95
2022/06/12 11:46:11;;;;;;;9.93;2.22;;;23.70;79.30;;;;;;5085189;28;20331;-95
2022/06/12 11:49:00;;;;;;;7.65;2.10;;;23.90;81.20;;;;;;5070436;28;20051;-96
2022/06/12 11:51:53;;;;;;;5.38;1.77;;;23.80;80.10;;;;;;5066652;28;20050;-96
2022/06/12 11:54:37;;;;;;;5.40;1.80;;;23.70;78.20;;;;;;5071169;28;20047;-96
2022/06/12 11:57:20;;;;;;;4.95;2.08;;;23.70;80.80;;;;;;5072776;28;20056;-95
2022/06/12 12:00:07;;;;;;;3.78;1.70;;;23.80;79.30;;;;;;5070100;28;20032;-95
2022/06/12 12:03:12;;;;;;;6.90;1.95;;;23.80;80.20;;;;;;5068792;28;20047;-95
2022/06/12 12:06:01;;;;;;;6.37;1.90;;;23.70;78.90;;;;;;5067683;28;20108;-93
2022/06/12 12:08:48;;;;;;;5.10;2.00;;;23.80;81.00;;;;;;5084564;28;20048;-96
2022/06/12 12:11:24;;;;;;;7.10;1.80;;;23.80;81.40;;;;;;5083191;28;20076;-95
2022/06/12 12:13:54;;;;;;;6.82;2.10;;;24.00;81.50;;;;;;5068534;28;20051;-96
2022/06/12 12:16:42;;;;;;;6.88;1.83;;;24.10;79.90;;;;;;5085890;28;20067;-96
2022/06/12 12:19:39;;;;;;;6.00;2.13;;;24.20;79.70;;;;;;5090143;28;20062;-96
2022/06/12 12:22:38;;;;;;;5.75;2.10;;;23.80;78.00;;;;;;5092550;28;20480;-96
2022/06/12 12:25:26;;;;;;;6.50;2.33;;;23.90;77.40;;;;;;5062344;28;20063;-94
2022/06/12 12:27:54;;;;;;;6.50;2.28;;;23.90;76.30;;;;;;5065818;28;20039;-96
2022/06/12 12:30:24;;;;;;;6.53;1.98;;;23.90;77.60;;;;;;5084205;28;20043;-94
2022/06/12 12:32:53;;;;;;;6.45;2.33;;;23.70;76.70;;;;;;5065589;28;20048;-94
2022/06/12 12:41:13;;;;;;;5.97;1.85;;;24.00;81.50;;;;;;5083162;28;20302;-96
2022/06/12 12:43:57;;;;;;;7.70;2.47;;;23.90;77.30;;;;;;5081386;28;20194;-95
2022/06/12 12:46:47;;;;;;;5.30;1.80;;;24.10;77.40;;;;;;5082101;28;20129;-94
2022/06/12 12:49:28;;;;;;;6.97;2.47;;;24.00;77.80;;;;;;5069870;28;20032;-96
2022/06/12 12:52:21;;;;;;;8.27;1.95;;;24.10;79.00;;;;;;5069263;28;20051;-95
2022/06/12 12:54:56;;;;;;;6.53;1.90;;;24.10;77.00;;;;;;5103447;28;20040;-96
2022/06/12 12:57:40;;;;;;;4.80;1.60;;;24.10;75.50;;;;;;5066981;28;20043;-96
2022/06/12 13:00:21;;;;;;;6.18;2.30;;;24.20;76.20;;;;;;5082260;28;20055;-93
2022/06/12 13:03:27;;;;;;;8.38;2.10;;;24.00;76.20;;;;;;5065601;28;20468;-94
2022/06/12 13:06:14;;;;;;;5.88;1.85;;;24.20;79.20;;;;;;5064823;28;20036;-95
2022/06/12 13:09:04;;;;;;;6.15;2.10;;;24.30;77.20;;;;;;5079262;28;20028;-96
2022/06/12 13:11:52;;;;;;;4.07;1.55;;;24.40;79.00;;;;;;5090313;22;20044;-54
2022/06/12 13:14:48;;;;;;;7.72;2.10;;;24.10;77.00;;;;;;5094735;28;20055;-55
2022/06/12 13:17:29;;;;;;;6.40;2.15;;;24.40;77.40;;;;;;5096286;28;20513;-54
2022/06/12 13:19:55;;;;;;;9.07;1.80;;;23.90;76.80;;;;;;5096395;28;20040;-54
2022/06/12 13:22:26;;;;;;;5.32;1.85;;;23.90;76.60;;;;;;5096397;28;20178;-53
2022/06/12 13:25:00;;;;;;;6.10;1.98;;;24.00;78.70;;;;;;5096241;28;20040;-54
2022/06/12 13:27:32;;;;;;;5.30;1.83;;;24.20;77.90;;;;;;5096023;28;20048;-55
2022/06/12 13:29:59;;;;;;;5.82;1.98;;;24.10;74.60;;;;;;5096006;28;20389;-54
2022/06/12 13:32:26;;;;;;;5.60;2.00;;;24.20;76.60;;;;;;5096271;28;20044;-54
2022/06/12 13:35:01;;;;;;;6.75;1.90;;;24.40;75.90;;;;;;5096056;28;20040;-55
2022/06/12 13:37:32;;;;;;;7.15;2.13;;;24.20;73.10;;;;;;5095947;28;20549;-53
2022/06/12 13:40:00;;;;;;;6.68;2.10;;;24.30;75.10;;;;;;5096015;28;20048;-55
2022/06/12 13:42:28;;;;;;;6.63;2.10;;;24.20;74.10;;;;;;5095998;28;20042;-55
2022/06/12 13:44:56;;;;;;;4.68;1.95;;;24.30;73.80;;;;;;5095951;28;20056;-56
2022/06/12 13:47:35;;;;;;;4.88;1.55;;;24.10;74.00;;;;;;5095911;28;20040;-55
2022/06/12 13:50:10;;;;;;;7.25;1.75;;;24.30;76.90;;;;;;5095693;28;20040;-54